createdAt,value
2023-05-21T00:00:03.092Z,45.12
2023-05-21T00:02:30.171Z,45.00
2023-05-21T00:04:56.851Z,45.10
2023-05-21T00:07:23.390Z,45.21
2023-05-21T00:09:49.986Z,44.88
2023-05-21T00:12:16.533Z,45.21
2023-05-21T00:14:43.083Z,45.18
2023-05-21T00:17:09.735Z,45.33
2023-05-21T00:19:36.312Z,45.28
2023-05-21T00:22:03.735Z,45.00
2023-05-21T00:24:30.380Z,45.21
2023-05-21T00:26:57.130Z,45.06
2023-05-21T00:29:24.070Z,45.19
2023-05-21T00:31:52.218Z,45.48
2023-05-21T00:34:18.917Z,45.24
2023-05-21T00:36:46.270Z,45.11
2023-05-21T00:39:13.812Z,45.53
2023-05-21T00:41:40.567Z,45.38
2023-05-21T00:44:07.255Z,44.98
2023-05-21T00:46:34.316Z,45.37
2023-05-21T00:49:01.818Z,45.07
2023-05-21T00:51:30.347Z,45.41
2023-05-21T00:53:57.938Z,45.19
2023-05-21T00:56:27.168Z,45.18
2023-05-21T00:58:57.248Z,45.37
2023-05-21T01:01:26.026Z,45.30
2023-05-21T01:03:57.712Z,45.27
2023-05-21T01:06:24.358Z,45.39
2023-05-21T01:08:50.996Z,44.96
2023-05-21T01:11:19.080Z,45.31
2023-05-21T01:13:46.861Z,45.43
2023-05-21T01:16:14.124Z,44.79
2023-05-21T01:18:43.549Z,45.36
2023-05-21T01:21:10.487Z,45.33
2023-05-21T01:23:37.147Z,45.17
2023-05-21T01:26:03.721Z,45.07
2023-05-21T01:28:30.340Z,45.09
2023-05-21T01:31:00.743Z,44.89
2023-05-21T01:33:36.577Z,45.21
2023-05-21T01:36:14.036Z,45.11
2023-05-21T01:38:52.048Z,45.75
2023-05-21T01:41:19.901Z,45.06
2023-05-21T01:43:47.400Z,45.26
2023-05-21T01:46:18.346Z,45.31
2023-05-21T01:48:45.261Z,45.36
2023-05-21T01:51:12.991Z,44.96
2023-05-21T01:53:40.656Z,45.43
2023-05-21T01:56:07.756Z,45.34
2023-05-21T01:58:34.356Z,45.34
2023-05-21T02:01:00.899Z,45.11
2023-05-21T02:03:28.530Z,45.08
2023-05-21T02:05:55.795Z,45.14
2023-05-21T02:08:23.433Z,45.31
2023-05-21T02:10:50.545Z,45.18
2023-05-21T02:13:20.434Z,45.12
2023-05-21T02:15:47.313Z,44.95
2023-05-21T02:18:18.447Z,45.29
2023-05-21T02:20:45.044Z,45.16
2023-05-21T02:23:11.575Z,45.16
2023-05-21T02:25:38.472Z,45.06
2023-05-21T02:28:05.428Z,45.24
2023-05-21T02:30:32.094Z,45.56
2023-05-21T02:32:59.014Z,45.75
2023-05-21T02:35:26.081Z,45.68
2023-05-21T02:37:52.668Z,45.43
2023-05-21T02:40:19.217Z,45.70
2023-05-21T02:42:45.779Z,45.62
2023-05-21T02:45:12.920Z,45.31
2023-05-21T02:47:39.540Z,45.89
2023-05-21T02:50:07.621Z,45.81
2023-05-21T02:52:34.295Z,45.78
2023-05-21T02:55:00.864Z,45.44
2023-05-21T02:57:27.453Z,45.42
2023-05-21T02:59:54.019Z,45.42
2023-05-21T03:02:20.778Z,45.54
2023-05-21T03:04:47.858Z,45.56
2023-05-21T03:07:15.510Z,45.30
2023-05-21T03:09:42.417Z,45.35
2023-05-21T03:12:09.446Z,45.50
2023-05-21T03:14:36.197Z,45.40
2023-05-21T03:17:05.985Z,45.66
2023-05-21T03:19:36.351Z,45.19
2023-05-21T03:22:04.039Z,45.57
2023-05-21T03:24:31.807Z,45.48
2023-05-21T03:26:59.299Z,45.42
2023-05-21T03:29:25.911Z,45.45
2023-05-21T03:31:54.035Z,45.62
2023-05-21T03:34:21.135Z,45.86
2023-05-21T03:36:48.018Z,45.29
2023-05-21T03:39:14.902Z,45.76
2023-05-21T03:41:41.696Z,45.64
2023-05-21T03:44:08.607Z,45.63
2023-05-21T03:46:35.468Z,45.90
2023-05-21T03:49:02.436Z,45.67
2023-05-21T03:51:30.390Z,46.03
2023-05-21T03:53:59.056Z,45.95
2023-05-21T03:56:26.279Z,45.61
2023-05-21T03:58:53.034Z,45.51
2023-05-21T04:01:19.838Z,45.54
2023-05-21T04:03:46.670Z,45.44
2023-05-21T04:06:13.515Z,45.39
2023-05-21T04:08:40.101Z,45.74
2023-05-21T04:11:06.810Z,45.89
2023-05-21T04:13:33.408Z,45.89
2023-05-21T04:16:00.107Z,45.39
2023-05-21T04:18:26.838Z,46.00
2023-05-21T04:20:53.909Z,45.43
2023-05-21T04:23:23.544Z,45.92
2023-05-21T04:25:50.884Z,45.93
2023-05-21T04:28:21.093Z,45.87
2023-05-21T04:30:48.009Z,45.38
2023-05-21T04:33:18.051Z,45.64
2023-05-21T04:35:50.248Z,45.73
2023-05-21T04:38:20.802Z,45.85
2023-05-21T04:40:50.865Z,45.68
2023-05-21T04:43:17.592Z,45.97
2023-05-21T04:45:44.271Z,45.69
2023-05-21T04:48:10.854Z,45.53
2023-05-21T04:50:37.390Z,46.07
2023-05-21T04:53:03.950Z,45.89
2023-05-21T04:55:30.514Z,45.84
2023-05-21T04:57:57.399Z,45.93
2023-05-21T05:00:26.147Z,45.96
2023-05-21T05:02:52.859Z,45.72
2023-05-21T05:05:19.638Z,45.76
2023-05-21T05:07:46.364Z,46.02
2023-05-21T05:10:13.013Z,45.67
2023-05-21T05:12:39.575Z,45.48
2023-05-21T05:15:06.652Z,46.16
2023-05-21T05:17:34.420Z,46.07
2023-05-21T05:20:01.253Z,45.92
2023-05-21T05:22:27.805Z,45.60
2023-05-21T05:24:54.349Z,45.92
2023-05-21T05:27:21.004Z,45.73
2023-05-21T05:29:48.019Z,45.97
2023-05-21T05:32:14.695Z,45.59
2023-05-21T05:34:42.610Z,45.75
2023-05-21T05:37:09.131Z,45.99
2023-05-21T05:39:35.828Z,45.48
2023-05-21T05:42:03.289Z,45.90
2023-05-21T05:44:29.869Z,45.96
2023-05-21T05:46:56.431Z,45.49
2023-05-21T05:49:23.008Z,45.82
2023-05-21T05:51:49.584Z,45.40
2023-05-21T05:54:16.139Z,45.66
2023-05-21T05:56:42.649Z,45.93
2023-05-21T05:59:09.176Z,45.53
2023-05-21T06:01:35.763Z,45.95
2023-05-21T06:04:02.380Z,45.27
2023-05-21T06:06:28.921Z,45.77
2023-05-21T06:08:55.567Z,45.59
2023-05-21T06:11:22.741Z,45.77
2023-05-21T06:13:49.374Z,45.57
2023-05-21T06:16:16.176Z,45.83
2023-05-21T06:18:42.822Z,45.71
2023-05-21T06:21:09.516Z,45.39
2023-05-21T06:23:37.729Z,45.32
2023-05-21T06:26:04.758Z,45.60
2023-05-21T06:28:31.589Z,45.93
2023-05-21T06:30:58.221Z,45.95
2023-05-21T06:33:24.939Z,45.48
2023-05-21T06:35:51.595Z,45.26
2023-05-21T06:38:18.132Z,45.61
2023-05-21T06:40:47.451Z,45.63
2023-05-21T06:43:14.395Z,45.92
2023-05-21T06:45:41.251Z,45.33
2023-05-21T06:48:08.130Z,45.33
2023-05-21T06:50:34.749Z,45.56
2023-05-21T06:53:01.475Z,45.71
2023-05-21T06:55:28.112Z,46.17
2023-05-21T06:57:54.751Z,45.70
2023-05-21T07:00:21.289Z,45.82
2023-05-21T07:02:47.916Z,45.97
2023-05-21T07:05:14.503Z,45.51
2023-05-21T07:07:41.044Z,45.60
2023-05-21T07:10:08.421Z,45.75
2023-05-21T07:12:35.239Z,45.60
2023-05-21T07:15:01.871Z,45.60
2023-05-21T07:17:28.416Z,45.52
2023-05-21T07:19:55.018Z,45.33
2023-05-21T07:22:21.774Z,45.52
2023-05-21T07:24:48.330Z,45.08
2023-05-21T07:27:25.206Z,45.30
2023-05-21T07:29:52.612Z,45.37
2023-05-21T07:32:19.178Z,44.88
2023-05-21T07:34:45.710Z,45.56
2023-05-21T07:37:12.949Z,44.99
2023-05-21T07:39:39.989Z,45.40
2023-05-21T07:42:06.536Z,45.17
2023-05-21T07:44:33.101Z,45.24
2023-05-21T07:46:59.730Z,45.10
2023-05-21T07:49:26.313Z,45.30
2023-05-21T07:51:52.881Z,45.59
2023-05-21T07:54:19.787Z,45.24
2023-05-21T07:56:46.415Z,45.53
2023-05-21T07:59:14.725Z,45.02
2023-05-21T08:01:41.973Z,44.84
2023-05-21T08:04:08.882Z,45.43
2023-05-21T08:06:37.485Z,45.64
2023-05-21T08:09:06.221Z,45.22
2023-05-21T08:11:33.200Z,45.50
2023-05-21T08:13:59.858Z,45.50
2023-05-21T08:16:26.480Z,45.39
2023-05-21T08:18:53.108Z,45.30
2023-05-21T08:21:19.861Z,44.96
2023-05-21T08:23:46.472Z,45.21
2023-05-21T08:26:13.115Z,45.29
2023-05-21T08:28:39.751Z,45.38
2023-05-21T08:31:06.425Z,45.57
2023-05-21T08:33:37.144Z,45.49
2023-05-21T08:36:05.532Z,45.37
2023-05-21T08:38:32.198Z,45.28
2023-05-21T08:40:59.963Z,45.27
2023-05-21T08:43:29.728Z,45.14
2023-05-21T08:45:59.219Z,45.38
2023-05-21T08:48:26.261Z,45.23
2023-05-21T08:50:54.132Z,45.63
2023-05-21T08:53:28.173Z,45.14
2023-05-21T08:55:56.103Z,45.28
2023-05-21T08:58:23.015Z,45.11
2023-05-21T09:00:49.705Z,45.09
2023-05-21T09:03:16.714Z,45.42
2023-05-21T09:05:45.679Z,45.51
2023-05-21T09:08:22.017Z,45.25
2023-05-21T09:10:50.799Z,45.46
2023-05-21T09:13:18.343Z,45.47
2023-05-21T09:15:46.002Z,45.37
2023-05-21T09:18:15.641Z,45.34
2023-05-21T09:20:42.210Z,45.11
2023-05-21T09:23:16.687Z,45.30
2023-05-21T09:25:49.686Z,45.28
2023-05-21T09:28:17.499Z,45.24
2023-05-21T09:30:45.772Z,45.33
2023-05-21T09:33:12.792Z,45.54
2023-05-21T09:35:46.772Z,45.34
2023-05-21T09:38:13.412Z,45.40
2023-05-21T09:40:46.201Z,45.35
2023-05-21T09:43:16.386Z,44.96
2023-05-21T09:45:53.711Z,45.31
2023-05-21T09:48:34.699Z,45.02
2023-05-21T09:51:16.073Z,45.14
2023-05-21T09:53:57.990Z,45.27
2023-05-21T09:56:26.838Z,44.93
2023-05-21T09:58:57.526Z,45.19
2023-05-21T10:01:25.067Z,44.94
2023-05-21T10:03:57.212Z,45.10
2023-05-21T10:06:31.313Z,45.03
2023-05-21T10:09:05.797Z,44.77
2023-05-21T10:11:34.659Z,44.95
2023-05-21T10:14:07.466Z,45.00
2023-05-21T10:16:36.021Z,44.92
2023-05-21T10:19:04.431Z,44.93
2023-05-21T10:21:33.419Z,44.91
2023-05-21T10:24:02.435Z,44.69
2023-05-21T10:26:29.964Z,44.87
2023-05-21T10:29:00.643Z,45.17
2023-05-21T10:31:28.650Z,44.93
2023-05-21T10:33:56.150Z,44.77
2023-05-21T10:36:25.593Z,45.06
2023-05-21T10:38:53.004Z,44.69
2023-05-21T10:41:21.861Z,45.06
2023-05-21T10:43:51.694Z,44.73
2023-05-21T10:47:06.770Z,44.91
2023-05-21T10:50:08.622Z,44.71
2023-05-21T10:52:52.656Z,44.79
2023-05-21T10:55:54.495Z,44.79
2023-05-21T10:58:36.549Z,45.02
2023-05-21T11:01:03.852Z,44.70
2023-05-21T11:03:34.281Z,44.82
2023-05-21T11:06:06.330Z,44.52
2023-05-21T11:08:36.154Z,44.90
2023-05-21T11:11:03.872Z,44.71
2023-05-21T11:13:51.958Z,44.71
2023-05-21T11:16:18.673Z,44.67
2023-05-21T11:18:45.196Z,44.73
2023-05-21T11:21:17.036Z,44.61
2023-05-21T11:23:59.456Z,44.43
2023-05-21T11:26:27.765Z,44.45
2023-05-21T11:29:03.380Z,44.42
2023-05-21T11:31:38.392Z,44.22
2023-05-21T11:34:11.279Z,44.81
2023-05-21T11:36:38.804Z,44.64
2023-05-21T11:39:12.492Z,44.47
2023-05-21T11:41:58.469Z,44.56
2023-05-21T11:44:45.692Z,44.21
2023-05-21T11:47:15.752Z,44.27
2023-05-21T11:49:42.862Z,44.30
2023-05-21T11:52:10.943Z,44.57
2023-05-21T11:54:51.862Z,44.31
2023-05-21T11:57:19.453Z,44.69
2023-05-21T11:59:47.131Z,44.27
2023-05-21T12:02:18.599Z,44.31
2023-05-21T12:04:46.415Z,44.53
2023-05-21T12:07:15.054Z,44.23
2023-05-21T12:09:49.737Z,44.38
2023-05-21T12:12:21.497Z,44.34
2023-05-21T12:14:49.925Z,44.15
2023-05-21T12:17:18.523Z,44.14
2023-05-21T12:19:46.426Z,44.57
2023-05-21T12:22:13.599Z,44.61
2023-05-21T12:24:40.180Z,44.36
2023-05-21T12:27:12.959Z,44.55
2023-05-21T12:29:42.577Z,44.10
2023-05-21T12:32:12.512Z,44.25
2023-05-21T12:34:45.658Z,44.53
2023-05-21T12:37:12.174Z,44.58
2023-05-21T12:39:40.248Z,44.23
2023-05-21T12:42:07.308Z,44.09
2023-05-21T12:44:36.630Z,44.40
2023-05-21T12:47:03.793Z,44.34
2023-05-21T12:49:32.845Z,44.55
2023-05-21T12:51:59.473Z,44.35
2023-05-21T12:54:32.155Z,44.39
2023-05-21T12:57:05.495Z,44.08
2023-05-21T12:59:49.326Z,44.55
2023-05-21T13:02:32.554Z,44.11
2023-05-21T13:05:04.031Z,44.73
2023-05-21T13:07:32.385Z,44.63
2023-05-21T13:10:00.292Z,44.49
2023-05-21T13:12:29.128Z,44.53
2023-05-21T13:14:57.496Z,44.74
2023-05-21T13:17:25.939Z,44.22
2023-05-21T13:20:13.103Z,44.39
2023-05-21T13:22:47.873Z,44.26
2023-05-21T13:25:16.693Z,44.38
2023-05-21T13:27:43.892Z,44.52
2023-05-21T13:30:14.166Z,44.30
2023-05-21T13:32:42.132Z,44.18
2023-05-21T13:35:10.113Z,44.71
2023-05-21T13:37:36.892Z,44.53
2023-05-21T13:40:10.926Z,44.52
2023-05-21T13:42:38.579Z,44.42
2023-05-21T13:45:06.610Z,44.48
2023-05-21T13:47:33.796Z,44.48
2023-05-21T13:50:00.519Z,44.43
2023-05-21T13:52:27.279Z,44.65
2023-05-21T13:54:53.889Z,44.36
2023-05-21T13:57:20.606Z,44.73
2023-05-21T13:59:47.597Z,44.23
2023-05-21T14:02:14.245Z,44.68
2023-05-21T14:04:41.038Z,44.60
2023-05-21T14:07:07.757Z,44.72
2023-05-21T14:09:34.592Z,44.40
2023-05-21T14:12:01.524Z,44.82
2023-05-21T14:14:28.178Z,44.87
2023-05-21T14:16:55.097Z,44.71
2023-05-21T14:19:24.060Z,44.54
2023-05-21T14:21:53.719Z,44.67
2023-05-21T14:24:20.434Z,44.64
2023-05-21T14:26:47.062Z,44.68
2023-05-21T14:29:14.755Z,44.28
2023-05-21T14:31:41.359Z,44.82
2023-05-21T14:34:08.796Z,44.48
2023-05-21T14:36:36.311Z,44.39
2023-05-21T14:39:03.102Z,44.49
2023-05-21T14:41:29.701Z,44.71
2023-05-21T14:43:56.311Z,44.47
2023-05-21T14:46:22.971Z,44.77
2023-05-21T14:48:49.690Z,44.78
2023-05-21T14:51:16.528Z,44.48
2023-05-21T14:53:43.098Z,44.63
2023-05-21T14:56:09.770Z,44.46
2023-05-21T14:58:36.432Z,44.52
2023-05-21T15:01:04.267Z,44.78
2023-05-21T15:03:31.223Z,44.72
2023-05-21T15:05:58.629Z,44.84
2023-05-21T15:08:25.808Z,44.56
2023-05-21T15:10:52.709Z,44.85
2023-05-21T15:13:19.376Z,44.60
2023-05-21T15:15:46.230Z,44.55
2023-05-21T15:18:12.995Z,44.73
2023-05-21T15:20:39.695Z,44.84
2023-05-21T15:23:15.968Z,44.86
2023-05-21T15:25:44.373Z,44.46
2023-05-21T15:28:12.321Z,44.48
2023-05-21T15:30:39.179Z,44.55
2023-05-21T15:33:05.796Z,44.81
2023-05-21T15:35:32.650Z,44.52
2023-05-21T15:37:59.390Z,44.80
2023-05-21T15:40:27.215Z,44.83
2023-05-21T15:42:54.117Z,44.84
2023-05-21T15:45:20.983Z,44.35
2023-05-21T15:47:47.721Z,44.55
2023-05-21T15:50:14.450Z,44.19
2023-05-21T15:52:42.079Z,44.59
2023-05-21T15:55:09.309Z,44.64
2023-05-21T15:57:35.911Z,44.88
2023-05-21T16:00:02.689Z,44.97
2023-05-21T16:02:29.315Z,44.75
2023-05-21T16:04:56.016Z,44.46
2023-05-21T16:07:24.454Z,44.91
2023-05-21T16:09:51.171Z,44.61
2023-05-21T16:12:18.073Z,44.90
2023-05-21T16:14:44.902Z,44.88
2023-05-21T16:17:11.644Z,44.89
2023-05-21T16:19:38.930Z,45.12
2023-05-21T16:22:05.900Z,44.34
2023-05-21T16:24:32.818Z,44.52
2023-05-21T16:26:59.426Z,44.72
2023-05-21T16:29:26.085Z,45.03
2023-05-21T16:31:52.730Z,45.00
2023-05-21T16:34:19.325Z,45.05
2023-05-21T16:36:46.340Z,44.94
2023-05-21T16:39:12.891Z,45.03
2023-05-21T16:41:39.632Z,44.85
2023-05-21T16:44:06.247Z,44.62
2023-05-21T16:46:33.002Z,44.96
2023-05-21T16:48:59.691Z,44.62
2023-05-21T16:51:26.292Z,44.88
2023-05-21T16:53:52.940Z,44.79
2023-05-21T16:56:19.522Z,44.89
2023-05-21T16:58:46.193Z,44.95
2023-05-21T17:01:13.266Z,44.75
2023-05-21T17:03:43.100Z,44.99
2023-05-21T17:06:10.129Z,44.71
2023-05-21T17:08:36.776Z,44.70
2023-05-21T17:11:03.485Z,44.75
2023-05-21T17:13:30.105Z,45.21
2023-05-21T17:15:56.722Z,45.18
2023-05-21T17:18:23.360Z,44.51
2023-05-21T17:20:50.100Z,44.98
2023-05-21T17:23:16.798Z,45.14
2023-05-21T17:25:43.556Z,44.69
2023-05-21T17:28:11.206Z,44.85
2023-05-21T17:30:37.933Z,44.90
2023-05-21T17:33:04.610Z,44.65
2023-05-21T17:35:31.223Z,44.99
2023-05-21T17:37:57.937Z,45.14
2023-05-21T17:40:25.155Z,44.67
2023-05-21T17:42:52.611Z,44.70
2023-05-21T17:45:19.467Z,44.63
2023-05-21T17:47:46.271Z,44.70
2023-05-21T17:50:13.247Z,44.66
2023-05-21T17:52:40.067Z,44.74
2023-05-21T17:55:07.907Z,44.87
2023-05-21T17:57:36.031Z,45.08
2023-05-21T18:00:04.961Z,45.00
2023-05-21T18:02:31.754Z,45.08
2023-05-21T18:04:58.585Z,45.11
2023-05-21T18:07:25.591Z,44.67
2023-05-21T18:09:52.189Z,45.02
2023-05-21T18:12:18.796Z,44.94
2023-05-21T18:14:45.882Z,45.23
2023-05-21T18:17:12.621Z,44.80
2023-05-21T18:19:39.178Z,45.09
2023-05-21T18:22:05.903Z,44.92
2023-05-21T18:24:32.590Z,45.12
2023-05-21T18:26:59.208Z,44.78
2023-05-21T18:29:25.808Z,44.86
2023-05-21T18:31:52.524Z,45.12
2023-05-21T18:34:19.210Z,45.17
2023-05-21T18:36:45.794Z,44.83
2023-05-21T18:39:12.675Z,44.82
2023-05-21T18:41:39.302Z,44.92
2023-05-21T18:44:06.386Z,44.83
2023-05-21T18:46:33.344Z,44.72
2023-05-21T18:49:00.549Z,45.04
2023-05-21T18:51:27.271Z,44.76
2023-05-21T18:53:53.894Z,44.85
2023-05-21T18:56:21.808Z,44.86
2023-05-21T18:58:48.585Z,45.01
2023-05-21T19:01:15.897Z,45.21
2023-05-21T19:03:42.609Z,45.31
2023-05-21T19:06:09.291Z,45.02
2023-05-21T19:08:35.886Z,45.21
2023-05-21T19:11:02.669Z,45.11
2023-05-21T19:13:29.547Z,45.23
2023-05-21T19:15:57.435Z,45.22
2023-05-21T19:18:30.214Z,44.77
2023-05-21T19:20:57.119Z,45.29
2023-05-21T19:23:24.637Z,45.30
2023-05-21T19:25:51.466Z,45.25
2023-05-21T19:28:18.886Z,45.24
2023-05-21T19:30:46.407Z,45.03
2023-05-21T19:33:13.513Z,45.46
2023-05-21T19:35:41.920Z,45.21
2023-05-21T19:38:10.858Z,45.21
2023-05-21T19:40:37.872Z,45.23
2023-05-21T19:43:04.952Z,44.76
2023-05-21T19:45:31.699Z,44.76
2023-05-21T19:47:59.607Z,45.16
2023-05-21T19:50:28.664Z,45.20
2023-05-21T19:52:57.218Z,45.37
2023-05-21T19:55:24.746Z,44.91
2023-05-21T19:57:51.598Z,45.29
2023-05-21T20:00:18.951Z,44.99
2023-05-21T20:02:46.058Z,45.13
2023-05-21T20:05:12.808Z,45.45
2023-05-21T20:07:39.593Z,45.03
2023-05-21T20:10:06.994Z,45.15
2023-05-21T20:12:33.619Z,45.67
2023-05-21T20:15:00.961Z,45.32
2023-05-21T20:17:28.665Z,45.47
2023-05-21T20:19:57.246Z,45.22
2023-05-21T20:22:23.944Z,45.43
2023-05-21T20:24:50.677Z,45.57
2023-05-21T20:27:19.974Z,45.62
2023-05-21T20:29:46.777Z,45.26
2023-05-21T20:32:13.481Z,45.57
2023-05-21T20:34:50.739Z,45.27
2023-05-21T20:37:28.061Z,45.66
2023-05-21T20:39:57.752Z,45.52
2023-05-21T20:42:28.574Z,45.81
2023-05-21T20:44:55.482Z,45.52
2023-05-21T20:47:23.490Z,45.69
2023-05-21T20:49:53.869Z,45.63
2023-05-21T20:52:20.757Z,45.89
2023-05-21T20:54:48.914Z,45.88
2023-05-21T20:57:16.067Z,45.67
2023-05-21T20:59:43.304Z,45.94
2023-05-21T21:02:14.259Z,45.94
2023-05-21T21:04:42.145Z,45.89
2023-05-21T21:07:10.027Z,45.80
2023-05-21T21:09:37.270Z,46.03
2023-05-21T21:12:14.392Z,45.92
2023-05-21T21:14:50.982Z,45.75
2023-05-21T21:17:17.532Z,45.72
2023-05-21T21:19:44.096Z,46.30
2023-05-21T21:22:10.795Z,46.26
2023-05-21T21:24:37.385Z,45.88
2023-05-21T21:27:04.050Z,46.18
2023-05-21T21:29:30.655Z,45.97
2023-05-21T21:31:57.356Z,45.84
2023-05-21T21:34:25.173Z,46.15
2023-05-21T21:36:51.788Z,46.13
2023-05-21T21:39:18.508Z,46.09
2023-05-21T21:41:45.674Z,46.11
2023-05-21T21:44:12.280Z,46.41
2023-05-21T21:46:39.085Z,46.50
2023-05-21T21:49:05.703Z,46.53
2023-05-21T21:51:32.298Z,46.22
2023-05-21T21:53:58.856Z,46.43
2023-05-21T21:56:26.204Z,46.20
2023-05-21T21:58:52.858Z,46.56
2023-05-21T22:01:19.443Z,46.60
2023-05-21T22:03:46.114Z,46.38
2023-05-21T22:06:12.717Z,46.78
2023-05-21T22:08:39.258Z,46.54
2023-05-21T22:11:06.041Z,46.53
2023-05-21T22:13:32.701Z,46.98
2023-05-21T22:15:59.322Z,46.72
2023-05-21T22:18:39.612Z,46.62
2023-05-21T22:21:09.699Z,46.72
2023-05-21T22:23:37.169Z,46.74
2023-05-21T22:26:03.964Z,46.81
2023-05-21T22:28:30.529Z,46.82
2023-05-21T22:30:57.264Z,47.12
2023-05-21T22:33:24.450Z,46.69
2023-05-21T22:35:51.141Z,46.80
2023-05-21T22:38:18.047Z,46.96
2023-05-21T22:40:44.657Z,47.02
2023-05-21T22:43:11.382Z,47.01
2023-05-21T22:45:38.438Z,46.97
2023-05-21T22:48:08.389Z,46.97
2023-05-21T22:50:35.915Z,46.88
2023-05-21T22:53:02.739Z,47.03
2023-05-21T22:55:29.373Z,47.03
2023-05-21T22:57:55.961Z,47.23
2023-05-21T23:00:22.648Z,47.24
2023-05-21T23:02:52.199Z,47.14
2023-05-21T23:05:20.659Z,46.96
2023-05-21T23:07:47.281Z,47.42
2023-05-21T23:10:13.813Z,47.17
2023-05-21T23:12:40.926Z,47.58
2023-05-21T23:15:09.738Z,47.39
2023-05-21T23:17:36.915Z,47.06
2023-05-21T23:20:04.005Z,47.13
2023-05-21T23:22:30.648Z,47.42
2023-05-21T23:24:57.225Z,47.17
2023-05-21T23:27:24.015Z,47.29
2023-05-21T23:29:50.720Z,47.26
2023-05-21T23:32:17.849Z,47.41
2023-05-21T23:34:44.711Z,47.47
2023-05-21T23:37:11.327Z,47.03
2023-05-21T23:39:38.028Z,47.03
2023-05-21T23:42:05.059Z,47.38
2023-05-21T23:44:31.699Z,47.05
2023-05-21T23:46:58.311Z,47.39
2023-05-21T23:49:24.976Z,47.11
2023-05-21T23:51:51.671Z,47.18
2023-05-21T23:54:18.451Z,47.38
2023-05-21T23:56:45.776Z,47.48
2023-05-21T23:59:12.374Z,47.32
